createdAt,value
2019-03-11T00:00:01.641Z,9.29
2019-03-11T00:02:30.842Z,9.30
2019-03-11T00:04:59.686Z,9.29
2019-03-11T00:07:28.672Z,9.31
2019-03-11T00:09:57.600Z,9.32
2019-03-11T00:12:26.815Z,9.34
2019-03-11T00:14:55.762Z,9.31
2019-03-11T00:17:24.794Z,9.33
2019-03-11T00:19:53.769Z,9.33
2019-03-11T00:22:22.756Z,9.31
2019-03-11T00:24:51.958Z,9.32
2019-03-11T00:27:20.807Z,9.31
2019-03-11T00:29:49.900Z,9.31
2019-03-11T00:32:18.861Z,9.31
2019-03-11T00:34:47.828Z,9.30
2019-03-11T00:37:17.016Z,9.31
2019-03-11T00:39:45.931Z,9.31
2019-03-11T00:42:15.041Z,9.31
2019-03-11T00:44:43.953Z,9.33
2019-03-11T00:47:13.096Z,9.32
2019-03-11T00:49:42.007Z,9.32
2019-03-11T00:52:10.954Z,9.33
2019-03-11T00:54:39.954Z,9.33
2019-03-11T00:57:09.289Z,9.33
2019-03-11T00:59:38.164Z,9.33
2019-03-11T01:02:07.061Z,9.33
2019-03-11T01:04:36.098Z,9.32
2019-03-11T01:07:05.043Z,9.31
2019-03-11T01:09:34.005Z,9.31
2019-03-11T01:12:02.999Z,9.32
2019-03-11T01:14:32.137Z,9.33
2019-03-11T01:17:01.285Z,9.32
2019-03-11T01:19:30.199Z,9.32
2019-03-11T01:21:59.302Z,9.32
2019-03-11T01:24:28.322Z,9.33
2019-03-11T01:26:57.336Z,9.33
2019-03-11T01:29:26.211Z,9.33
2019-03-11T01:31:55.141Z,9.34
2019-03-11T01:34:24.418Z,9.34
2019-03-11T01:36:53.307Z,9.34
2019-03-11T01:39:22.406Z,9.34
2019-03-11T01:41:51.720Z,9.34
2019-03-11T01:44:20.736Z,9.36
2019-03-11T01:46:49.746Z,9.35
2019-03-11T01:49:18.922Z,9.35
2019-03-11T01:51:48.147Z,9.35
2019-03-11T01:54:17.233Z,9.35
2019-03-11T01:56:46.380Z,9.35
2019-03-11T01:59:15.514Z,9.35
2019-03-11T02:02:03.445Z,9.34
2019-03-11T02:04:53.116Z,9.37
2019-03-11T02:07:22.125Z,9.38
2019-03-11T02:09:51.304Z,9.38
2019-03-11T02:12:20.434Z,9.39
2019-03-11T02:14:49.458Z,9.37
2019-03-11T02:17:18.348Z,9.39
2019-03-11T02:19:47.398Z,9.37
2019-03-11T02:22:16.440Z,9.37
2019-03-11T02:24:46.017Z,9.37
2019-03-11T02:27:15.080Z,9.37
2019-03-11T02:29:44.286Z,9.39
2019-03-11T02:32:32.569Z,9.39
2019-03-11T02:35:01.652Z,9.40
2019-03-11T02:37:30.660Z,9.40
2019-03-11T02:39:59.717Z,9.42
2019-03-11T02:42:28.615Z,9.41
2019-03-11T02:44:57.683Z,9.42
2019-03-11T02:47:45.534Z,9.42
2019-03-11T02:50:15.850Z,9.42
2019-03-11T02:52:44.789Z,9.42
2019-03-11T02:55:13.750Z,9.41
2019-03-11T02:57:43.135Z,9.42
2019-03-11T03:00:13.239Z,9.42
2019-03-11T03:03:01.470Z,9.41
2019-03-11T03:05:33.761Z,9.42
2019-03-11T03:08:02.704Z,9.42
2019-03-11T03:10:31.690Z,9.42
2019-03-11T03:13:00.839Z,9.43
2019-03-11T03:15:29.897Z,9.42
2019-03-11T03:17:58.919Z,9.43
2019-03-11T03:20:27.873Z,9.44
2019-03-11T03:22:56.966Z,9.43
2019-03-11T03:25:33.729Z,9.44
2019-03-11T03:27:57.138Z,9.44
2019-03-11T03:30:45.272Z,9.43
2019-03-11T03:33:14.443Z,9.43
2019-03-11T03:35:43.415Z,9.43
2019-03-11T03:38:12.351Z,9.43
2019-03-11T03:40:41.462Z,9.43
2019-03-11T03:43:10.613Z,9.44
2019-03-11T03:45:42.036Z,9.46
2019-03-11T03:48:12.055Z,9.45
2019-03-11T03:50:41.214Z,9.44
2019-03-11T03:53:10.064Z,9.45
2019-03-11T03:55:39.017Z,9.44
2019-03-11T03:58:08.162Z,9.46
2019-03-11T04:00:37.024Z,9.46
2019-03-11T04:03:06.080Z,9.45
2019-03-11T04:05:34.990Z,9.45
2019-03-11T04:08:04.088Z,9.45
2019-03-11T04:10:33.327Z,9.45
2019-03-11T04:13:02.252Z,9.45
2019-03-11T04:15:31.074Z,9.44
2019-03-11T04:18:00.128Z,9.45
2019-03-11T04:20:29.122Z,9.45
2019-03-11T04:22:59.647Z,9.45
2019-03-11T04:25:29.939Z,9.44
2019-03-11T04:27:58.162Z,9.47
2019-03-11T04:30:27.214Z,9.43
2019-03-11T04:32:56.233Z,9.43
2019-03-11T04:35:25.205Z,9.45
2019-03-11T04:37:54.314Z,9.44
2019-03-11T04:40:23.140Z,9.44
2019-03-11T04:42:52.287Z,9.46
2019-03-11T04:45:21.168Z,9.45
2019-03-11T04:47:49.968Z,9.45
2019-03-11T04:50:19.065Z,9.44
2019-03-11T04:52:48.243Z,9.44
2019-03-11T04:55:17.138Z,9.46
2019-03-11T04:57:48.332Z,9.47
2019-03-11T05:00:22.482Z,9.46
2019-03-11T05:02:51.415Z,9.47
2019-03-11T05:05:20.368Z,9.47
2019-03-11T05:07:49.384Z,9.47
2019-03-11T05:10:18.388Z,9.47
2019-03-11T05:12:47.554Z,9.47
2019-03-11T05:15:16.382Z,9.47
2019-03-11T05:17:45.333Z,9.47
2019-03-11T05:20:14.762Z,9.49
2019-03-11T05:22:43.898Z,9.51
2019-03-11T05:25:33.509Z,9.51
2019-03-11T05:28:02.477Z,9.52
2019-03-11T05:30:31.380Z,9.52
2019-03-11T05:33:00.280Z,9.55
2019-03-11T05:35:29.530Z,9.55
2019-03-11T05:37:58.573Z,9.57
2019-03-11T05:40:27.545Z,9.55
2019-03-11T05:42:56.679Z,9.56
2019-03-11T05:45:25.597Z,9.56
2019-03-11T05:47:54.585Z,9.57
2019-03-11T05:50:23.610Z,9.58
2019-03-11T05:52:52.571Z,9.58
2019-03-11T05:55:21.545Z,9.59
2019-03-11T05:57:54.623Z,9.61
2019-03-11T06:00:26.880Z,9.63
2019-03-11T06:02:55.725Z,9.62
2019-03-11T06:05:24.751Z,9.64
2019-03-11T06:07:53.606Z,9.66
2019-03-11T06:10:22.674Z,9.69
2019-03-11T06:12:51.779Z,9.69
2019-03-11T06:15:20.618Z,9.71
2019-03-11T06:17:49.526Z,9.72
2019-03-11T06:20:33.289Z,9.73
2019-03-11T06:23:02.598Z,9.72
2019-03-11T06:25:31.613Z,9.73
2019-03-11T06:28:00.569Z,9.75
2019-03-11T06:30:29.470Z,9.79
2019-03-11T06:32:58.480Z,9.82
2019-03-11T06:35:27.490Z,9.84
2019-03-11T06:37:56.495Z,9.86
2019-03-11T06:40:25.508Z,9.88
2019-03-11T06:42:54.524Z,9.84
2019-03-11T06:45:23.614Z,9.96
2019-03-11T06:47:52.631Z,10.29
2019-03-11T06:50:21.881Z,10.82
2019-03-11T06:52:50.960Z,11.27
2019-03-11T06:55:19.830Z,11.59
2019-03-11T06:57:48.622Z,11.70
2019-03-11T07:00:17.740Z,11.66
2019-03-11T07:02:46.638Z,11.58
2019-03-11T07:05:20.405Z,11.50
2019-03-11T07:07:46.745Z,11.42
2019-03-11T07:10:16.003Z,11.34
2019-03-11T07:12:44.981Z,11.30
2019-03-11T07:15:14.056Z,11.27
2019-03-11T07:17:42.985Z,11.24
2019-03-11T07:20:12.406Z,11.25
2019-03-11T07:22:41.516Z,11.28
2019-03-11T07:25:10.570Z,11.28
2019-03-11T07:27:39.548Z,11.30
2019-03-11T07:30:09.636Z,11.32
2019-03-11T07:32:38.570Z,11.32
2019-03-11T07:35:08.687Z,11.35
2019-03-11T07:37:37.163Z,11.34
2019-03-11T07:40:06.221Z,11.32
2019-03-11T07:42:35.162Z,11.34
2019-03-11T07:45:04.202Z,11.38
2019-03-11T07:47:33.176Z,11.41
2019-03-11T07:50:02.079Z,11.45
2019-03-11T07:52:30.874Z,11.50
2019-03-11T07:54:59.765Z,11.40
2019-03-11T07:57:28.658Z,11.32
2019-03-11T07:59:57.609Z,11.28
2019-03-11T08:02:26.563Z,11.26
2019-03-11T08:04:55.478Z,11.20
2019-03-11T08:07:24.339Z,11.18
2019-03-11T08:09:53.192Z,11.17
2019-03-11T08:12:21.992Z,11.17
2019-03-11T08:14:50.881Z,11.14
2019-03-11T08:17:19.787Z,11.13
2019-03-11T08:19:48.902Z,11.11
2019-03-11T08:22:17.915Z,11.09
2019-03-11T08:24:46.788Z,11.07
2019-03-11T08:27:15.799Z,11.04
2019-03-11T08:29:44.642Z,11.02
2019-03-11T08:32:13.461Z,11.00
2019-03-11T08:34:42.388Z,10.97
2019-03-11T08:37:11.538Z,10.98
2019-03-11T08:39:40.449Z,10.98
2019-03-11T08:42:09.479Z,10.98
2019-03-11T08:44:38.404Z,10.97
2019-03-11T08:47:07.491Z,10.95
2019-03-11T08:49:36.408Z,10.94
2019-03-11T08:52:05.636Z,10.98
2019-03-11T08:54:34.471Z,11.05
2019-03-11T08:57:03.871Z,11.10
2019-03-11T08:59:32.783Z,11.14
2019-03-11T09:02:01.602Z,11.16
2019-03-11T09:04:30.532Z,11.19
2019-03-11T09:06:59.549Z,11.18
2019-03-11T09:09:28.520Z,11.20
2019-03-11T09:11:57.485Z,11.26
2019-03-11T09:14:26.570Z,11.28
2019-03-11T09:16:55.753Z,11.33
2019-03-11T09:19:24.602Z,11.45
2019-03-11T09:21:53.631Z,11.56
2019-03-11T09:24:22.574Z,11.70
2019-03-11T09:26:51.532Z,11.80
2019-03-11T09:29:20.474Z,11.85
2019-03-11T09:31:49.476Z,11.88
2019-03-11T09:34:37.746Z,11.92
2019-03-11T09:37:06.831Z,11.94
2019-03-11T09:39:35.837Z,11.96
2019-03-11T09:42:04.751Z,11.97
2019-03-11T09:44:33.847Z,11.97
2019-03-11T09:47:02.818Z,11.98
2019-03-11T09:49:31.777Z,11.97
2019-03-11T09:52:00.753Z,11.97
2019-03-11T09:54:29.789Z,11.98
2019-03-11T09:56:58.803Z,11.99
2019-03-11T09:59:27.816Z,12.00
2019-03-11T10:01:56.850Z,12.05
2019-03-11T10:04:25.822Z,12.07
2019-03-11T10:06:54.856Z,12.07
2019-03-11T10:09:23.771Z,12.07
2019-03-11T10:11:52.867Z,12.07
2019-03-11T10:14:21.869Z,12.05
2019-03-11T10:16:50.845Z,12.00
2019-03-11T10:19:19.934Z,11.96
2019-03-11T10:21:48.901Z,11.92
2019-03-11T10:24:17.923Z,11.88
2019-03-11T10:26:48.159Z,11.85
2019-03-11T10:29:17.164Z,11.83
2019-03-11T10:31:45.998Z,11.80
2019-03-11T10:34:14.934Z,11.79
2019-03-11T10:36:44.050Z,11.75
2019-03-11T10:39:13.090Z,11.75
2019-03-11T10:41:41.934Z,11.74
2019-03-11T10:44:10.715Z,11.73
2019-03-11T10:46:39.575Z,11.71
2019-03-11T10:49:08.498Z,11.70
2019-03-11T10:51:37.409Z,11.72
2019-03-11T10:54:06.344Z,11.71
2019-03-11T10:56:35.464Z,11.77
2019-03-11T10:59:04.859Z,11.77
2019-03-11T11:01:33.784Z,11.76
2019-03-11T11:04:02.931Z,11.77
2019-03-11T11:06:31.898Z,11.78
2019-03-11T11:09:20.177Z,11.79
2019-03-11T11:11:49.137Z,11.80
2019-03-11T11:14:18.219Z,11.80
2019-03-11T11:16:47.143Z,11.80
2019-03-11T11:19:16.171Z,11.78
2019-03-11T11:21:46.153Z,11.75
2019-03-11T11:24:15.199Z,11.75
2019-03-11T11:26:44.112Z,11.78
2019-03-11T11:29:13.084Z,11.81
2019-03-11T11:31:42.009Z,11.85
2019-03-11T11:34:10.931Z,11.86
2019-03-11T11:36:40.027Z,11.91
2019-03-11T11:39:08.960Z,11.95
2019-03-11T11:41:37.963Z,11.96
2019-03-11T11:44:06.983Z,11.97
2019-03-11T11:46:35.848Z,11.98
2019-03-11T11:49:04.737Z,12.01
2019-03-11T11:51:33.845Z,12.03
2019-03-11T11:54:03.110Z,12.04
2019-03-11T11:56:31.930Z,12.03
2019-03-11T11:59:00.861Z,12.03
2019-03-11T12:01:29.859Z,12.02
2019-03-11T12:03:58.890Z,12.03
2019-03-11T12:06:28.626Z,12.01
2019-03-11T12:08:57.493Z,11.99
2019-03-11T12:11:26.446Z,12.00
2019-03-11T12:13:55.475Z,11.99
2019-03-11T12:16:24.410Z,11.99
2019-03-11T12:18:53.477Z,11.99
2019-03-11T12:21:22.429Z,11.96
2019-03-11T12:23:51.462Z,11.96
2019-03-11T12:26:20.469Z,11.93
2019-03-11T12:28:49.563Z,11.93
2019-03-11T12:31:19.158Z,11.93
2019-03-11T12:33:49.028Z,11.92
2019-03-11T12:36:18.503Z,11.92
2019-03-11T12:38:47.653Z,11.92
2019-03-11T12:41:16.688Z,11.92
2019-03-11T12:43:45.691Z,11.92
2019-03-11T12:46:14.625Z,11.91
2019-03-11T12:48:43.561Z,11.91
2019-03-11T12:51:12.601Z,11.91
2019-03-11T12:53:41.517Z,11.92
2019-03-11T12:56:10.426Z,11.93
2019-03-11T12:58:41.782Z,11.93
2019-03-11T13:01:10.491Z,11.93
2019-03-11T13:03:39.383Z,11.94
2019-03-11T13:06:08.374Z,11.95
2019-03-11T13:08:37.379Z,11.95
2019-03-11T13:11:06.517Z,11.95
2019-03-11T13:13:35.739Z,11.97
2019-03-11T13:16:04.778Z,11.97
2019-03-11T13:18:44.496Z,11.98
2019-03-11T13:21:25.760Z,11.97
2019-03-11T13:23:54.850Z,11.98
2019-03-11T13:26:23.738Z,11.98
2019-03-11T13:28:52.827Z,11.98
2019-03-11T13:31:21.692Z,12.01
2019-03-11T13:33:50.918Z,12.01
2019-03-11T13:36:20.123Z,12.02
2019-03-11T13:38:49.036Z,12.01
2019-03-11T13:41:18.046Z,12.01
2019-03-11T13:43:48.649Z,12.01
2019-03-11T13:46:17.709Z,12.01
2019-03-11T13:48:46.533Z,12.02
2019-03-11T13:51:15.422Z,12.03
2019-03-11T13:53:44.426Z,12.06
2019-03-11T13:56:13.387Z,12.06
2019-03-11T13:58:42.367Z,12.10
2019-03-11T14:01:11.339Z,12.13
2019-03-11T14:03:40.453Z,12.10
2019-03-11T14:06:09.339Z,12.11
2019-03-11T14:08:38.475Z,12.14
2019-03-11T14:11:07.381Z,12.19
2019-03-11T14:13:36.284Z,11.83
2019-03-11T14:16:05.321Z,12.25
2019-03-11T14:18:34.346Z,12.25
2019-03-11T14:21:03.361Z,12.25
2019-03-11T14:23:32.472Z,12.24
2019-03-11T14:26:01.535Z,12.22
2019-03-11T14:28:30.500Z,12.21
2019-03-11T14:30:59.542Z,12.23
2019-03-11T14:33:28.591Z,12.24
2019-03-11T14:35:57.562Z,12.23
2019-03-11T14:38:26.548Z,12.23
2019-03-11T14:40:55.631Z,12.21
2019-03-11T14:43:24.520Z,12.19
2019-03-11T14:45:53.662Z,12.16
2019-03-11T14:48:22.531Z,12.15
2019-03-11T14:50:51.683Z,12.13
2019-03-11T14:53:20.567Z,12.11
2019-03-11T14:55:49.680Z,12.09
2019-03-11T14:58:39.376Z,12.07
2019-03-11T15:01:08.197Z,12.05
2019-03-11T15:03:37.136Z,12.03
2019-03-11T15:06:06.119Z,12.01
2019-03-11T15:08:35.199Z,12.02
2019-03-11T15:11:04.205Z,12.01
2019-03-11T15:13:33.370Z,12.01
2019-03-11T15:16:02.251Z,12.00
2019-03-11T15:18:31.244Z,11.98
2019-03-11T15:21:00.282Z,11.97
2019-03-11T15:23:29.417Z,11.96
2019-03-11T15:25:58.353Z,11.94
2019-03-11T15:28:27.218Z,11.92
2019-03-11T15:30:56.002Z,11.92
2019-03-11T15:33:25.026Z,11.92
2019-03-11T15:35:54.096Z,11.91
2019-03-11T15:38:23.656Z,11.90
2019-03-11T15:40:52.784Z,11.91
2019-03-11T15:43:21.717Z,11.89
2019-03-11T15:45:50.727Z,11.88
2019-03-11T15:48:19.771Z,11.88
2019-03-11T15:50:48.630Z,11.87
2019-03-11T15:53:17.555Z,11.86
2019-03-11T15:55:46.471Z,11.87
2019-03-11T15:58:15.352Z,11.87
2019-03-11T16:00:44.470Z,11.87
2019-03-11T16:03:13.354Z,11.86
2019-03-11T16:05:42.383Z,11.86
2019-03-11T16:08:11.260Z,11.84
2019-03-11T16:10:40.165Z,11.83
2019-03-11T16:13:09.532Z,11.81
2019-03-11T16:15:38.505Z,11.78
2019-03-11T16:18:07.548Z,11.75
2019-03-11T16:20:36.575Z,11.73
2019-03-11T16:23:05.530Z,11.72
2019-03-11T16:25:34.601Z,11.71
2019-03-11T16:28:03.605Z,11.69
2019-03-11T16:30:32.610Z,11.66
2019-03-11T16:33:01.593Z,11.65
2019-03-11T16:35:30.585Z,11.64
2019-03-11T16:37:59.550Z,11.62
2019-03-11T16:40:28.726Z,11.61
2019-03-11T16:42:57.668Z,11.59
2019-03-11T16:45:26.683Z,11.56
2019-03-11T16:47:55.671Z,11.56
2019-03-11T16:50:24.726Z,11.55
2019-03-11T16:52:53.685Z,11.54
2019-03-11T16:55:25.590Z,11.51
2019-03-11T16:57:54.407Z,11.49
2019-03-11T17:00:27.173Z,11.47
2019-03-11T17:02:56.184Z,11.45
2019-03-11T17:05:25.293Z,11.45
2019-03-11T17:07:54.266Z,11.42
2019-03-11T17:10:23.193Z,11.41
2019-03-11T17:12:52.327Z,11.38
2019-03-11T17:15:21.550Z,11.37
2019-03-11T17:17:50.595Z,11.36
2019-03-11T17:20:19.813Z,11.35
2019-03-11T17:23:10.815Z,11.34
2019-03-11T17:25:39.843Z,11.33
2019-03-11T17:28:08.834Z,11.32
2019-03-11T17:30:37.917Z,11.30
2019-03-11T17:33:06.859Z,11.28
2019-03-11T17:35:37.639Z,11.28
2019-03-11T17:38:06.697Z,11.26
2019-03-11T17:40:35.991Z,11.25
2019-03-11T17:43:05.027Z,11.24
2019-03-11T17:45:34.013Z,11.22
2019-03-11T17:48:02.953Z,11.21
2019-03-11T17:50:32.016Z,11.20
2019-03-11T17:53:00.980Z,11.19
2019-03-11T17:55:29.998Z,11.18
2019-03-11T17:57:58.963Z,11.18
2019-03-11T18:00:29.312Z,11.17
2019-03-11T18:02:57.533Z,11.16
2019-03-11T18:05:26.577Z,11.14
2019-03-11T18:07:55.473Z,11.13
2019-03-11T18:10:24.527Z,11.12
2019-03-11T18:12:53.634Z,11.12
2019-03-11T18:15:22.525Z,11.11
2019-03-11T18:17:51.538Z,11.10
2019-03-11T18:20:20.706Z,11.09
2019-03-11T18:22:49.924Z,11.08
2019-03-11T18:25:19.164Z,11.08
2019-03-11T18:27:48.125Z,11.06
2019-03-11T18:30:18.956Z,11.05
2019-03-11T18:32:48.145Z,11.06
2019-03-11T18:35:17.308Z,11.06
2019-03-11T18:37:46.349Z,11.06
2019-03-11T18:40:15.705Z,11.04
2019-03-11T18:42:44.695Z,11.03
2019-03-11T18:45:13.722Z,11.02
2019-03-11T18:47:42.789Z,11.03
2019-03-11T18:50:12.333Z,11.02
2019-03-11T18:52:41.196Z,11.02
2019-03-11T18:55:10.345Z,11.01
2019-03-11T18:57:39.349Z,11.02
2019-03-11T19:00:09.664Z,11.01
2019-03-11T19:02:37.744Z,11.00
2019-03-11T19:05:07.920Z,10.97
2019-03-11T19:07:36.963Z,10.97
2019-03-11T19:10:25.189Z,10.98
2019-03-11T19:12:54.264Z,10.97
2019-03-11T19:15:23.206Z,10.97
2019-03-11T19:17:52.433Z,10.97
2019-03-11T19:20:21.466Z,10.97
2019-03-11T19:22:50.558Z,10.97
2019-03-11T19:25:19.566Z,10.97
2019-03-11T19:27:48.583Z,10.98
2019-03-11T19:30:19.443Z,10.98
2019-03-11T19:32:48.440Z,10.97
2019-03-11T19:35:18.003Z,10.96
2019-03-11T19:37:47.065Z,10.96
2019-03-11T19:40:16.476Z,10.96
2019-03-11T19:42:45.486Z,10.95
2019-03-11T19:45:15.289Z,10.94
2019-03-11T19:47:44.620Z,10.94
2019-03-11T19:50:13.853Z,10.94
2019-03-11T19:52:42.845Z,10.92
2019-03-11T19:55:12.094Z,10.91
2019-03-11T19:57:41.107Z,10.91
2019-03-11T20:00:12.623Z,10.91
2019-03-11T20:02:41.728Z,10.91
2019-03-11T20:05:11.198Z,10.92
2019-03-11T20:07:40.211Z,10.91
2019-03-11T20:10:10.248Z,10.91
2019-03-11T20:12:39.282Z,10.90
2019-03-11T20:15:08.710Z,10.89
2019-03-11T20:17:37.739Z,10.89
2019-03-11T20:20:07.338Z,10.89
2019-03-11T20:22:36.259Z,10.88
2019-03-11T20:25:05.839Z,10.87
2019-03-11T20:27:34.849Z,10.88
2019-03-11T20:30:03.966Z,10.87
2019-03-11T20:32:32.932Z,10.86
2019-03-11T20:35:01.912Z,10.87
2019-03-11T20:37:30.894Z,10.87
2019-03-11T20:39:59.925Z,10.87
2019-03-11T20:42:28.832Z,10.86
2019-03-11T20:44:57.809Z,10.86
2019-03-11T20:47:26.953Z,10.86
2019-03-11T20:49:57.525Z,10.87
2019-03-11T20:52:28.667Z,10.86
2019-03-11T20:54:57.303Z,10.85
2019-03-11T20:57:26.285Z,10.85
2019-03-11T20:59:55.389Z,10.84
2019-03-11T21:02:24.451Z,10.84
2019-03-11T21:04:53.443Z,10.84
2019-03-11T21:07:22.498Z,10.82
2019-03-11T21:09:51.508Z,10.83
2019-03-11T21:12:20.426Z,10.82
2019-03-11T21:14:49.584Z,10.82
2019-03-11T21:17:26.064Z,10.82
2019-03-11T21:19:49.250Z,10.83
2019-03-11T21:22:18.088Z,10.84
2019-03-11T21:24:58.882Z,10.83
2019-03-11T21:27:17.864Z,10.83
2019-03-11T21:29:46.775Z,10.84
2019-03-11T21:32:15.848Z,10.83
2019-03-11T21:34:45.147Z,10.82
2019-03-11T21:37:15.179Z,10.81
2019-03-11T21:39:44.705Z,10.81
2019-03-11T21:42:13.919Z,10.81
2019-03-11T21:44:42.839Z,10.80
2019-03-11T21:47:11.888Z,10.79
2019-03-11T21:49:41.013Z,10.80
2019-03-11T21:52:09.866Z,10.78
2019-03-11T21:54:39.239Z,10.80
2019-03-11T21:57:08.151Z,10.79
2019-03-11T21:59:37.284Z,10.78
2019-03-11T22:02:06.193Z,10.79
2019-03-11T22:04:35.293Z,10.79
2019-03-11T22:07:04.308Z,10.79
2019-03-11T22:09:33.261Z,10.80
2019-03-11T22:12:02.346Z,10.80
2019-03-11T22:14:31.275Z,10.79
2019-03-11T22:17:00.279Z,10.78
2019-03-11T22:19:29.287Z,10.77
2019-03-11T22:21:58.331Z,10.77
2019-03-11T22:24:27.293Z,10.77
2019-03-11T22:26:56.294Z,10.77
2019-03-11T22:29:25.426Z,10.75
2019-03-11T22:31:54.309Z,10.76
2019-03-11T22:34:23.361Z,10.77
2019-03-11T22:36:52.320Z,10.75
2019-03-11T22:39:21.333Z,10.75
2019-03-11T22:41:52.625Z,10.76
2019-03-11T22:44:20.932Z,10.75
2019-03-11T22:46:50.245Z,10.75
2019-03-11T22:49:19.155Z,10.75
2019-03-11T22:51:48.166Z,10.76
2019-03-11T22:54:17.176Z,10.75
2019-03-11T22:56:46.301Z,10.74
2019-03-11T22:59:15.300Z,10.74
2019-03-11T23:01:44.568Z,10.73
2019-03-11T23:04:13.545Z,10.73
2019-03-11T23:06:42.538Z,10.73
2019-03-11T23:09:11.543Z,10.72
2019-03-11T23:11:40.568Z,10.72
2019-03-11T23:14:09.633Z,10.72
2019-03-11T23:16:38.588Z,10.73
2019-03-11T23:19:07.713Z,10.72
2019-03-11T23:21:36.671Z,10.72
2019-03-11T23:24:05.579Z,10.73
2019-03-11T23:26:34.622Z,10.73
2019-03-11T23:29:03.541Z,10.72
2019-03-11T23:31:32.336Z,10.72
2019-03-11T23:34:01.353Z,10.71
2019-03-11T23:36:30.390Z,10.72
2019-03-11T23:38:59.463Z,10.71
2019-03-11T23:41:29.098Z,10.71
2019-03-11T23:43:58.191Z,10.71
2019-03-11T23:46:27.234Z,10.71
2019-03-11T23:48:56.144Z,10.70
2019-03-11T23:51:25.131Z,10.70
2019-03-11T23:53:54.001Z,10.70
2019-03-11T23:56:23.169Z,10.69
2019-03-11T23:58:52.290Z,10.70
